sensor_id;sensor_type;location;lat;lon;timestamp;pressure;altitude;pressure_sealevel;temperature;humidity
22930;BME280;11630;42.660;23.292;2023-10-09T00:00:37;69588.30;;;18.56;75.79
22930;BME280;11630;42.660;23.292;2023-10-09T00:03:08;69583.64;;;18.51;75.97
22930;BME280;11630;42.660;23.292;2023-10-09T00:05:39;69588.36;;;18.47;76.09
22930;BME280;11630;42.660;23.292;2023-10-09T00:08:16;69573.23;;;18.47;76.46
22930;BME280;11630;42.660;23.292;2023-10-09T00:10:47;69566.64;;;18.41;76.62
22930;BME280;11630;42.660;23.292;2023-10-09T00:13:19;69575.17;;;18.42;76.66
22930;BME280;11630;42.660;23.292;2023-10-09T00:15:50;69572.70;;;18.41;76.72
22930;BME280;11630;42.660;23.292;2023-10-09T00:18:21;69571.06;;;18.37;76.82
22930;BME280;11630;42.660;23.292;2023-10-09T00:20:52;69565.60;;;18.30;77.34
22930;BME280;11630;42.660;23.292;2023-10-09T00:23:23;69556.25;;;18.29;77.62
22930;BME280;11630;42.660;23.292;2023-10-09T00:25:53;69559.83;;;18.31;77.63
22930;BME280;11630;42.660;23.292;2023-10-09T00:28:42;69566.69;;;18.33;77.48
22930;BME280;11630;42.660;23.292;2023-10-09T00:31:13;69554.07;;;18.24;77.78
22930;BME280;11630;42.660;23.292;2023-10-09T00:33:44;69555.20;;;18.20;78.15
22930;BME280;11630;42.660;23.292;2023-10-09T00:36:15;69534.05;;;18.12;77.82
22930;BME280;11630;42.660;23.292;2023-10-09T00:38:47;69536.25;;;18.09;78.09
22930;BME280;11630;42.660;23.292;2023-10-09T00:41:17;69531.63;;;17.99;78.50
22930;BME280;11630;42.660;23.292;2023-10-09T00:43:51;69520.36;;;18.00;78.85
22930;BME280;11630;42.660;23.292;2023-10-09T00:46:22;69516.23;;;18.00;78.75
22930;BME280;11630;42.660;23.292;2023-10-09T00:49:00;69508.33;;;17.84;79.55
22930;BME280;11630;42.660;23.292;2023-10-09T00:51:32;69511.39;;;17.75;79.71
22930;BME280;11630;42.660;23.292;2023-10-09T00:54:06;69489.71;;;17.67;80.36
22930;BME280;11630;42.660;23.292;2023-10-09T00:56:38;69497.67;;;17.68;80.52
22930;BME280;11630;42.660;23.292;2023-10-09T00:59:10;69510.25;;;17.82;79.80
22930;BME280;11630;42.660;23.292;2023-10-09T01:01:43;69495.47;;;17.71;80.28
22930;BME280;11630;42.660;23.292;2023-10-09T01:04:14;69492.48;;;17.62;80.66
22930;BME280;11630;42.660;23.292;2023-10-09T01:06:46;69470.27;;;17.53;81.01
22930;BME280;11630;42.660;23.292;2023-10-09T01:09:19;69461.78;;;17.44;80.88
22930;BME280;11630;42.660;23.292;2023-10-09T01:11:51;69457.70;;;17.39;80.92
22930;BME280;11630;42.660;23.292;2023-10-09T01:14:30;69454.70;;;17.35;81.10
22930;BME280;11630;42.660;23.292;2023-10-09T01:17:04;69456.32;;;17.39;80.78
22930;BME280;11630;42.660;23.292;2023-10-09T01:19:37;69444.82;;;17.31;81.08
22930;BME280;11630;42.660;23.292;2023-10-09T01:22:09;69427.57;;;17.17;80.64
22930;BME280;11630;42.660;23.292;2023-10-09T01:24:43;69424.27;;;17.16;80.65
22930;BME280;11630;42.660;23.292;2023-10-09T01:27:14;69419.63;;;17.08;80.46
22930;BME280;11630;42.660;23.292;2023-10-09T01:29:46;69413.33;;;17.04;80.43
22930;BME280;11630;42.660;23.292;2023-10-09T01:32:17;69412.27;;;16.95;80.28
22930;BME280;11630;42.660;23.292;2023-10-09T01:34:47;69400.75;;;16.93;80.51
22930;BME280;11630;42.660;23.292;2023-10-09T01:37:20;69401.31;;;16.93;80.46
22930;BME280;11630;42.660;23.292;2023-10-09T01:39:59;69399.13;;;16.89;79.28
22930;BME280;11630;42.660;23.292;2023-10-09T01:42:28;69379.73;;;16.70;79.40
22930;BME280;11630;42.660;23.292;2023-10-09T01:45:02;69367.14;;;16.61;79.19
22930;BME280;11630;42.660;23.292;2023-10-09T01:47:38;69366.85;;;16.59;79.23
22930;BME280;11630;42.660;23.292;2023-10-09T01:50:12;69390.41;;;16.68;79.09
22930;BME280;11630;42.660;23.292;2023-10-09T01:52:48;69361.94;;;16.57;78.98
22930;BME280;11630;42.660;23.292;2023-10-09T01:55:19;69361.41;;;16.52;79.59
22930;BME280;11630;42.660;23.292;2023-10-09T01:58:00;69361.13;;;16.48;80.62
22930;BME280;11630;42.660;23.292;2023-10-09T02:00:46;69345.55;;;16.40;81.48
22930;BME280;11630;42.660;23.292;2023-10-09T02:03:24;69324.73;;;16.21;82.45
22930;BME280;11630;42.660;23.292;2023-10-09T02:05:54;69321.17;;;16.19;83.16
22930;BME280;11630;42.660;23.292;2023-10-09T02:08:30;69324.73;;;16.21;82.77
22930;BME280;11630;42.660;23.292;2023-10-09T02:11:01;69321.46;;;16.15;82.91
22930;BME280;11630;42.660;23.292;2023-10-09T02:13:32;69309.44;;;16.07;82.98
22930;BME280;11630;42.660;23.292;2023-10-09T02:16:04;69303.42;;;15.99;83.32
22930;BME280;11630;42.660;23.292;2023-10-09T02:18:44;69320.10;;;16.13;83.43
22930;BME280;11630;42.660;23.292;2023-10-09T02:21:23;69308.63;;;16.00;84.64
22930;BME280;11630;42.660;23.292;2023-10-09T02:24:04;69306.98;;;16.04;84.70
22930;BME280;11630;42.660;23.292;2023-10-09T02:26:37;69319.00;;;16.12;83.91
22930;BME280;11630;42.660;23.292;2023-10-09T02:29:08;69320.09;;;16.20;83.07
22930;BME280;11630;42.660;23.292;2023-10-09T02:31:46;69329.39;;;16.24;82.13
22930;BME280;11630;42.660;23.292;2023-10-09T02:34:18;69284.03;;;15.83;82.46
22930;BME280;11630;42.660;23.292;2023-10-09T02:36:49;69297.16;;;15.87;82.32
22930;BME280;11630;42.660;23.292;2023-10-09T02:39:20;69284.03;;;15.80;82.24
22930;BME280;11630;42.660;23.292;2023-10-09T02:41:58;69263.27;;;15.66;82.21
22930;BME280;11630;42.660;23.292;2023-10-09T02:44:31;69257.25;;;15.53;82.26
22930;BME280;11630;42.660;23.292;2023-10-09T02:47:02;69244.70;;;15.44;82.45
22930;BME280;11630;42.660;23.292;2023-10-09T02:49:32;69224.48;;;15.29;82.79
22930;BME280;11630;42.660;23.292;2023-10-09T02:52:03;69235.67;;;15.35;82.76
22930;BME280;11630;42.660;23.292;2023-10-09T02:54:35;69233.77;;;15.32;82.67
22930;BME280;11630;42.660;23.292;2023-10-09T02:57:06;69223.38;;;15.28;82.22
22930;BME280;11630;42.660;23.292;2023-10-09T02:59:37;69211.06;;;15.18;82.17
22930;BME280;11630;42.660;23.292;2023-10-09T03:02:07;69198.78;;;15.03;82.91
22930;BME280;11630;42.660;23.292;2023-10-09T03:04:38;69207.55;;;15.03;82.99
22930;BME280;11630;42.660;23.292;2023-10-09T03:07:09;69196.59;;;15.06;83.02
22930;BME280;11630;42.660;23.292;2023-10-09T03:09:40;69203.14;;;15.04;82.81
22930;BME280;11630;42.660;23.292;2023-10-09T03:12:11;69190.30;;;15.04;82.88
22930;BME280;11630;42.660;23.292;2023-10-09T03:14:42;69185.68;;;14.91;83.14
22930;BME280;11630;42.660;23.292;2023-10-09T03:17:13;69169.83;;;14.76;84.01
22930;BME280;11630;42.660;23.292;2023-10-09T03:19:44;69163.55;;;14.72;84.24
22930;BME280;11630;42.660;23.292;2023-10-09T03:22:15;69160.56;;;14.68;84.69
22930;BME280;11630;42.660;23.292;2023-10-09T03:24:46;69166.30;;;14.67;84.82
22930;BME280;11630;42.660;23.292;2023-10-09T03:27:17;69134.62;;;14.46;85.81
22930;BME280;11630;42.660;23.292;2023-10-09T03:29:47;69131.62;;;14.44;86.37
22930;BME280;11630;42.660;23.292;2023-10-09T03:32:18;69128.88;;;14.47;86.12
22930;BME280;11630;42.660;23.292;2023-10-09T03:34:50;69142.81;;;14.53;85.99
22930;BME280;11630;42.660;23.292;2023-10-09T03:37:21;69132.70;;;14.50;85.98
22930;BME280;11630;42.660;23.292;2023-10-09T03:39:53;69145.80;;;14.57;85.59
22930;BME280;11630;42.660;23.292;2023-10-09T03:42:24;69130.52;;;14.46;85.35
22930;BME280;11630;42.660;23.292;2023-10-09T03:44:55;69123.70;;;14.38;86.01
22930;BME280;11630;42.660;23.292;2023-10-09T03:47:26;69111.98;;;14.26;85.67
22930;BME280;11630;42.660;23.292;2023-10-09T03:49:57;69111.43;;;14.23;85.92
22930;BME280;11630;42.660;23.292;2023-10-09T03:52:27;69112.24;;;14.20;85.61
22930;BME280;11630;42.660;23.292;2023-10-09T03:54:59;69095.88;;;14.10;86.00
22930;BME280;11630;42.660;23.292;2023-10-09T03:57:29;69113.06;;;14.22;85.57
22930;BME280;11630;42.660;23.292;2023-10-09T04:00:01;69104.32;;;14.19;84.90
22930;BME280;11630;42.660;23.292;2023-10-09T04:02:31;69098.88;;;14.14;85.12
22930;BME280;11630;42.660;23.292;2023-10-09T04:05:02;69076.75;;;14.00;85.26
22930;BME280;11630;42.660;23.292;2023-10-09T04:07:32;69085.22;;;14.04;85.06
22930;BME280;11630;42.660;23.292;2023-10-09T04:10:03;69063.38;;;13.87;85.06
22930;BME280;11630;42.660;23.292;2023-10-09T04:12:50;69071.30;;;13.93;85.10
22930;BME280;11630;42.660;23.292;2023-10-09T04:15:21;69073.75;;;13.99;84.88
22930;BME280;11630;42.660;23.292;2023-10-09T04:17:52;69071.84;;;13.91;84.75
22930;BME280;11630;42.660;23.292;2023-10-09T04:20:23;69060.92;;;13.83;84.54
22930;BME280;11630;42.660;23.292;2023-10-09T04:22:54;69072.67;;;13.93;83.04
22930;BME280;11630;42.660;23.292;2023-10-09T04:25:35;69070.22;;;13.89;83.17
22930;BME280;11630;42.660;23.292;2023-10-09T04:28:15;69066.66;;;13.82;81.84
22930;BME280;11630;42.660;23.292;2023-10-09T04:30:50;69052.19;;;13.76;80.28
22930;BME280;11630;42.660;23.292;2023-10-09T04:33:24;69050.56;;;13.72;80.47
22930;BME280;11630;42.660;23.292;2023-10-09T04:36:08;69043.75;;;13.67;79.98
22930;BME280;11630;42.660;23.292;2023-10-09T04:38:48;69051.12;;;13.75;79.81
22930;BME280;11630;42.660;23.292;2023-10-09T04:41:34;69048.11;;;13.71;78.09
22930;BME280;11630;42.660;23.292;2023-10-09T04:44:11;69054.11;;;13.76;76.59
22930;BME280;11630;42.660;23.292;2023-10-09T04:46:54;69060.39;;;13.81;74.77
22930;BME280;11630;42.660;23.292;2023-10-09T04:49:39;69068.56;;;13.88;74.56
22930;BME280;11630;42.660;23.292;2023-10-09T04:52:22;69057.66;;;13.83;72.64
22930;BME280;11630;42.660;23.292;2023-10-09T04:54:58;69064.48;;;13.83;71.83
22930;BME280;11630;42.660;23.292;2023-10-09T04:57:39;69063.38;;;13.82;71.02
22930;BME280;11630;42.660;23.292;2023-10-09T05:00:16;69063.39;;;13.77;70.03
22930;BME280;11630;42.660;23.292;2023-10-09T05:03:00;69061.48;;;13.82;69.97
22930;BME280;11630;42.660;23.292;2023-10-09T05:05:34;69063.39;;;13.89;68.87
22930;BME280;11630;42.660;23.292;2023-10-09T05:08:15;69070.22;;;13.89;68.55
22930;BME280;11630;42.660;23.292;2023-10-09T05:10:52;69058.46;;;13.82;66.83
22930;BME280;11630;42.660;23.292;2023-10-09T05:13:35;69050.84;;;13.71;66.70
22930;BME280;11630;42.660;23.292;2023-10-09T05:16:18;69046.47;;;13.72;66.16
22930;BME280;11630;42.660;23.292;2023-10-09T05:18:56;69048.12;;;13.66;66.36
22930;BME280;11630;42.660;23.292;2023-10-09T05:21:33;69028.20;;;13.59;65.85
22930;BME280;11630;42.660;23.292;2023-10-09T05:24:07;69049.74;;;13.70;65.58
22930;BME280;11630;42.660;23.292;2023-10-09T05:26:49;69049.47;;;13.73;65.14
22930;BME280;11630;42.660;23.292;2023-10-09T05:29:24;69049.47;;;13.71;64.69
22930;BME280;11630;42.660;23.292;2023-10-09T05:32:06;69035.02;;;13.59;64.59
22930;BME280;11630;42.660;23.292;2023-10-09T05:34:44;69048.38;;;13.67;64.59
22930;BME280;11630;42.660;23.292;2023-10-09T05:37:31;69069.66;;;13.86;64.26
22930;BME280;11630;42.660;23.292;2023-10-09T05:40:05;69067.20;;;13.83;63.46
22930;BME280;11630;42.660;23.292;2023-10-09T05:42:47;69064.20;;;13.86;63.13
22930;BME280;11630;42.660;23.292;2023-10-09T05:45:28;69076.75;;;14.00;62.81
22930;BME280;11630;42.660;23.292;2023-10-09T05:48:14;69087.95;;;14.04;62.27
22930;BME280;11630;42.660;23.292;2023-10-09T05:50:45;69074.57;;;13.93;61.65
22930;BME280;11630;42.660;23.292;2023-10-09T05:53:32;69082.22;;;13.95;61.71
22930;BME280;11630;42.660;23.292;2023-10-09T05:56:15;69087.94;;;14.07;61.19
22930;BME280;11630;42.660;23.292;2023-10-09T05:59:01;69118.25;;;14.33;61.10
22930;BME280;11630;42.660;23.292;2023-10-09T06:01:35;69097.77;;;14.13;60.52
22930;BME280;11630;42.660;23.292;2023-10-09T06:04:22;69109.78;;;14.27;60.56
22930;BME280;11630;42.660;23.292;2023-10-09T06:06:53;69135.98;;;14.53;59.70
22930;BME280;11630;42.660;23.292;2023-10-09T06:09:26;69149.63;;;14.68;59.25
22930;BME280;11630;42.660;23.292;2023-10-09T06:12:12;69152.36;;;14.60;58.45
22930;BME280;11630;42.660;23.292;2023-10-09T06:15:02;69161.91;;;14.73;58.21
22930;BME280;11630;42.660;23.292;2023-10-09T06:17:46;69171.47;;;14.83;57.36
22930;BME280;11630;42.660;23.292;2023-10-09T06:20:20;69157.28;;;14.65;57.72
22930;BME280;11630;42.660;23.292;2023-10-09T06:22:59;69190.05;;;15.00;57.23
22930;BME280;11630;42.660;23.292;2023-10-09T06:25:30;69193.85;;;15.01;56.73
22930;BME280;11630;42.660;23.292;2023-10-09T06:28:03;69198.50;;;15.04;56.58
22930;BME280;11630;42.660;23.292;2023-10-09T06:30:35;69194.95;;;15.07;56.53
22930;BME280;11630;42.660;23.292;2023-10-09T06:33:06;69168.47;;;14.81;56.41
22930;BME280;11630;42.660;23.292;2023-10-09T06:35:39;69199.86;;;15.06;56.01
22930;BME280;11630;42.660;23.292;2023-10-09T06:38:10;69212.45;;;15.13;56.13
22930;BME280;11630;42.660;23.292;2023-10-09T06:40:51;69213.54;;;15.14;54.90
22930;BME280;11630;42.660;23.292;2023-10-09T06:43:22;69166.30;;;14.77;55.69
22930;BME280;11630;42.660;23.292;2023-10-09T06:45:54;69211.33;;;15.17;54.68
22930;BME280;11630;42.660;23.292;2023-10-09T06:48:26;69179.92;;;14.89;54.17
22930;BME280;11630;42.660;23.292;2023-10-09T06:51:11;69166.83;;;14.77;54.67
22930;BME280;11630;42.660;23.292;2023-10-09T06:53:56;69235.41;;;15.31;53.95
22930;BME280;11630;42.660;23.292;2023-10-09T06:56:32;69235.11;;;15.39;52.76
22930;BME280;11630;42.660;23.292;2023-10-09T06:59:06;69202.34;;;15.05;52.61
22930;BME280;11630;42.660;23.292;2023-10-09T07:01:45;69209.69;;;15.18;52.67
22930;BME280;11630;42.660;23.292;2023-10-09T07:04:16;69205.88;;;15.12;52.33
22930;BME280;11630;42.660;23.292;2023-10-09T07:06:51;69241.97;;;15.37;51.33
22930;BME280;11630;42.660;23.292;2023-10-09T07:09:22;69229.67;;;15.30;51.38
22930;BME280;11630;42.660;23.292;2023-10-09T07:11:53;69260.52;;;15.61;50.26
22930;BME280;11630;42.660;23.292;2023-10-09T07:14:27;69264.63;;;15.66;50.10
22930;BME280;11630;42.660;23.292;2023-10-09T07:17:05;69292.50;;;15.87;48.97
22930;BME280;11630;42.660;23.292;2023-10-09T07:19:45;69274.44;;;15.78;48.08
22930;BME280;11630;42.660;23.292;2023-10-09T07:22:16;69324.21;;;16.18;47.33
22930;BME280;11630;42.660;23.292;2023-10-09T07:24:51;69364.39;;;16.56;46.24
22930;BME280;11630;42.660;23.292;2023-10-09T07:27:26;69373.97;;;16.66;45.42
22930;BME280;11630;42.660;23.292;2023-10-09T07:30:15;69400.50;;;16.89;45.53
22930;BME280;11630;42.660;23.292;2023-10-09T07:33:02;69372.34;;;16.57;45.03
22930;BME280;11630;42.660;23.292;2023-10-09T07:35:48;69454.98;;;17.29;43.91
22930;BME280;11630;42.660;23.292;2023-10-09T07:38:19;69421.02;;;17.06;44.39
22930;BME280;11630;42.660;23.292;2023-10-09T07:40:51;69404.59;;;16.93;44.24
22930;BME280;11630;42.660;23.292;2023-10-09T07:43:36;69417.45;;;17.04;44.00
22930;BME280;11630;42.660;23.292;2023-10-09T07:46:11;69418.30;;;17.01;44.25
22930;BME280;11630;42.660;23.292;2023-10-09T07:48:59;69451.95;;;17.30;43.59
22930;BME280;11630;42.660;23.292;2023-10-09T07:51:29;69421.56;;;17.04;43.28
22930;BME280;11630;42.660;23.292;2023-10-09T07:54:00;69467.51;;;17.56;41.96
22930;BME280;11630;42.660;23.292;2023-10-09T07:56:39;69540.34;;;18.17;40.81
22930;BME280;11630;42.660;23.292;2023-10-09T07:59:09;69560.33;;;18.36;40.58
22930;BME280;11630;42.660;23.292;2023-10-09T08:01:42;69529.13;;;18.05;41.16
22930;BME280;11630;42.660;23.292;2023-10-09T08:04:12;69476.57;;;17.58;42.22
22930;BME280;11630;42.660;23.292;2023-10-09T08:06:44;69514.08;;;17.88;41.77
22930;BME280;11630;42.660;23.292;2023-10-09T08:09:15;69510.80;;;17.85;40.76
22930;BME280;11630;42.660;23.292;2023-10-09T08:11:47;69530.23;;;18.01;40.31
22930;BME280;11630;42.660;23.292;2023-10-09T08:14:30;69572.17;;;18.36;39.05
22930;BME280;11630;42.660;23.292;2023-10-09T08:17:02;69593.48;;;18.62;39.13
22930;BME280;11630;42.660;23.292;2023-10-09T08:19:47;69519.01;;;17.95;40.02
22930;BME280;11630;42.660;23.292;2023-10-09T08:22:30;69565.28;;;18.38;39.59
22930;BME280;11630;42.660;23.292;2023-10-09T08:25:10;69612.95;;;18.79;39.25
22930;BME280;11630;42.660;23.292;2023-10-09T08:27:38;69652.16;;;19.13;38.72
22930;BME280;11630;42.660;23.292;2023-10-09T08:30:09;69729.83;;;19.67;37.55
22930;BME280;11630;42.660;23.292;2023-10-09T08:32:49;69633.23;;;18.97;38.43
22930;BME280;11630;42.660;23.292;2023-10-09T08:35:31;69626.36;;;18.92;38.92
22930;BME280;11630;42.660;23.292;2023-10-09T08:38:04;69665.63;;;19.19;38.15
22930;BME280;11630;42.660;23.292;2023-10-09T08:40:42;69781.56;;;20.33;37.06
22930;BME280;11630;42.660;23.292;2023-10-09T08:43:18;69772.31;;;20.12;36.73
22930;BME280;11630;42.660;23.292;2023-10-09T08:45:58;69738.53;;;19.85;36.65
22930;BME280;11630;42.660;23.292;2023-10-09T08:48:22;69686.95;;;19.46;36.51
22930;BME280;11630;42.660;23.292;2023-10-09T08:50:53;69742.96;;;19.82;36.16
22930;BME280;11630;42.660;23.292;2023-10-09T08:53:26;69827.50;;;20.56;35.14
22930;BME280;11630;42.660;23.292;2023-10-09T08:55:57;69741.53;;;19.92;35.48
22930;BME280;11630;42.660;23.292;2023-10-09T08:58:28;69753.33;;;20.04;34.62
22930;BME280;11630;42.660;23.292;2023-10-09T09:01:03;69741.27;;;19.88;34.82
22930;BME280;11630;42.660;23.292;2023-10-09T09:03:42;69712.23;;;19.56;34.84
22930;BME280;11630;42.660;23.292;2023-10-09T09:06:12;69747.81;;;20.04;34.79
22930;BME280;11630;42.660;23.292;2023-10-09T09:08:43;69809.81;;;20.57;33.85
22930;BME280;11630;42.660;23.292;2023-10-09T09:11:16;69844.48;;;20.79;33.70
22930;BME280;11630;42.660;23.292;2023-10-09T09:16:33;69878.73;;;21.16;33.84
22930;BME280;11630;42.660;23.292;2023-10-09T09:19:05;69921.39;;;21.41;33.65
22930;BME280;11630;42.660;23.292;2023-10-09T09:21:41;69898.46;;;21.39;33.26
22930;BME280;11630;42.660;23.292;2023-10-09T09:24:12;69776.08;;;20.25;34.32
22930;BME280;11630;42.660;23.292;2023-10-09T09:27:00;69802.94;;;20.55;33.99
22930;BME280;11630;42.660;23.292;2023-10-09T09:32:10;69836.22;;;20.71;33.79
22930;BME280;11630;42.660;23.292;2023-10-09T09:34:51;69909.77;;;21.40;33.26
22930;BME280;11630;42.660;23.292;2023-10-09T09:37:25;69864.48;;;20.98;33.49
22930;BME280;11630;42.660;23.292;2023-10-09T09:40:02;69818.31;;;20.66;33.63
22930;BME280;11630;42.660;23.292;2023-10-09T09:42:33;69880.35;;;21.20;33.16
22930;BME280;11630;42.660;23.292;2023-10-09T09:45:05;69944.48;;;21.62;32.83
22930;BME280;11630;42.660;23.292;2023-10-09T09:47:36;69858.45;;;20.95;32.92
22930;BME280;11630;42.660;23.292;2023-10-09T09:50:07;69966.94;;;21.89;31.79
22930;BME280;11630;42.660;23.292;2023-10-09T09:52:42;69930.33;;;21.68;31.40
22930;BME280;11630;42.660;23.292;2023-10-09T09:55:15;70006.48;;;22.30;31.43
22930;BME280;11630;42.660;23.292;2023-10-09T09:57:49;69912.75;;;21.49;31.96
22930;BME280;11630;42.660;23.292;2023-10-09T10:00:23;69913.66;;;21.39;31.98
22930;BME280;11630;42.660;23.292;2023-10-09T10:03:01;69914.16;;;21.47;31.31
22930;BME280;11630;42.660;23.292;2023-10-09T10:05:32;70022.41;;;22.45;30.46
22930;BME280;11630;42.660;23.292;2023-10-09T10:08:04;70099.70;;;23.11;29.52
22930;BME280;11630;42.660;23.292;2023-10-09T10:10:39;70096.11;;;23.09;29.47
22930;BME280;11630;42.660;23.292;2023-10-09T10:16:15;70137.67;;;23.40;29.13
22930;BME280;11630;42.660;23.292;2023-10-09T10:19:05;70139.52;;;23.50;28.79
22930;BME280;11630;42.660;23.292;2023-10-09T10:21:50;70149.36;;;23.64;28.72
22930;BME280;11630;42.660;23.292;2023-10-09T10:27:15;70207.56;;;24.03;28.14
22930;BME280;11630;42.660;23.292;2023-10-09T10:32:58;70139.06;;;23.40;27.56
22930;BME280;11630;42.660;23.292;2023-10-09T10:35:43;70064.99;;;22.84;28.15
22930;BME280;11630;42.660;23.292;2023-10-09T10:38:30;70075.41;;;22.96;28.74
22930;BME280;11630;42.660;23.292;2023-10-09T10:41:20;70179.42;;;23.85;27.66
22930;BME280;11630;42.660;23.292;2023-10-09T10:43:50;70134.64;;;23.38;28.31
22930;BME280;11630;42.660;23.292;2023-10-09T10:46:24;70309.54;;;24.83;27.71
22930;BME280;11630;42.660;23.292;2023-10-09T10:49:08;70091.44;;;23.01;28.69
22930;BME280;11630;42.660;23.292;2023-10-09T10:51:42;70191.59;;;23.91;28.41
22930;BME280;11630;42.660;23.292;2023-10-09T10:54:23;70155.98;;;23.70;28.26
22930;BME280;11630;42.660;23.292;2023-10-09T10:57:02;70275.56;;;24.63;26.55
22930;BME280;11630;42.660;23.292;2023-10-09T10:59:41;70275.56;;;24.63;26.55
22930;BME280;11630;42.660;23.292;2023-10-09T11:02:11;70196.03;;;23.90;27.33
22930;BME280;11630;42.660;23.292;2023-10-09T11:04:41;70333.12;;;25.16;26.82
22930;BME280;11630;42.660;23.292;2023-10-09T11:07:12;70325.40;;;25.07;26.75
22930;BME280;11630;42.660;23.292;2023-10-09T11:09:51;70421.53;;;25.97;26.37
22930;BME280;11630;42.660;23.292;2023-10-09T11:15:12;70356.64;;;25.26;26.68
22930;BME280;11630;42.660;23.292;2023-10-09T11:18:05;70328.45;;;25.08;26.24
22930;BME280;11630;42.660;23.292;2023-10-09T11:20:38;70279.75;;;24.61;27.01
22930;BME280;11630;42.660;23.292;2023-10-09T11:23:09;70365.75;;;25.57;26.12
22930;BME280;11630;42.660;23.292;2023-10-09T11:25:43;70437.73;;;26.16;25.50
22930;BME280;11630;42.660;23.292;2023-10-09T11:28:22;70429.39;;;25.92;25.76
22930;BME280;11630;42.660;23.292;2023-10-09T11:31:11;70375.66;;;25.42;26.15
22930;BME280;11630;42.660;23.292;2023-10-09T11:33:46;70468.28;;;26.49;25.11
22930;BME280;11630;42.660;23.292;2023-10-09T11:36:21;70471.12;;;26.44;25.07
22930;BME280;11630;42.660;23.292;2023-10-09T11:39:01;70362.95;;;25.36;26.37
22930;BME280;11630;42.660;23.292;2023-10-09T11:41:43;70361.88;;;25.32;26.16
22930;BME280;11630;42.660;23.292;2023-10-09T11:44:13;70280.95;;;24.81;26.57
22930;BME280;11630;42.660;23.292;2023-10-09T11:46:59;70406.71;;;25.79;25.41
22930;BME280;11630;42.660;23.292;2023-10-09T11:49:57;70465.38;;;26.36;25.01
22930;BME280;11630;42.660;23.292;2023-10-09T11:52:31;70281.86;;;24.73;26.36
22930;BME280;11630;42.660;23.292;2023-10-09T11:55:05;70399.62;;;25.65;25.11
22930;BME280;11630;42.660;23.292;2023-10-09T11:57:44;70400.72;;;25.66;25.08
22930;BME280;11630;42.660;23.292;2023-10-09T12:00:15;70386.55;;;25.64;24.90
22930;BME280;11630;42.660;23.292;2023-10-09T12:02:57;70337.58;;;25.15;25.58
22930;BME280;11630;42.660;23.292;2023-10-09T12:05:27;70465.48;;;26.26;24.80
22930;BME280;11630;42.660;23.292;2023-10-09T12:07:57;70543.55;;;26.95;24.42
22930;BME280;11630;42.660;23.292;2023-10-09T12:10:30;70654.70;;;27.99;23.11
22930;BME280;11630;42.660;23.292;2023-10-09T12:13:01;70547.10;;;27.02;22.91
22930;BME280;11630;42.660;23.292;2023-10-09T12:15:32;70620.27;;;27.64;22.37
22930;BME280;11630;42.660;23.292;2023-10-09T12:18:07;70708.88;;;28.45;21.93
22930;BME280;11630;42.660;23.292;2023-10-09T12:20:40;70534.47;;;26.85;22.39
22930;BME280;11630;42.660;23.292;2023-10-09T12:23:11;70497.50;;;26.76;21.75
22930;BME280;11630;42.660;23.292;2023-10-09T12:25:41;70476.64;;;26.49;21.64
22930;BME280;11630;42.660;23.292;2023-10-09T12:28:13;70488.87;;;26.53;21.55
22930;BME280;11630;42.660;23.292;2023-10-09T12:30:44;70546.30;;;26.97;20.87
22930;BME280;11630;42.660;23.292;2023-10-09T12:33:15;70519.28;;;26.73;20.61
22930;BME280;11630;42.660;23.292;2023-10-09T12:35:46;70497.05;;;26.65;20.41
22930;BME280;11630;42.660;23.292;2023-10-09T12:38:15;70506.59;;;26.61;20.42
22930;BME280;11630;42.660;23.292;2023-10-09T12:40:47;70509.31;;;26.66;20.02
22930;BME280;11630;42.660;23.292;2023-10-09T12:43:21;70588.50;;;27.36;19.80
22930;BME280;11630;42.660;23.292;2023-10-09T12:45:52;70673.80;;;28.12;19.77
22930;BME280;11630;42.660;23.292;2023-10-09T12:48:22;70454.41;;;26.21;20.18
22930;BME280;11630;42.660;23.292;2023-10-09T12:50:53;70471.41;;;26.43;20.08
22930;BME280;11630;42.660;23.292;2023-10-09T12:53:24;70504.95;;;26.60;20.22
22930;BME280;11630;42.660;23.292;2023-10-09T12:55:55;70492.27;;;26.48;19.99
22930;BME280;11630;42.660;23.292;2023-10-09T12:58:26;70510.48;;;26.84;19.60
22930;BME280;11630;42.660;23.292;2023-10-09T13:00:57;70508.80;;;26.63;19.55
22930;BME280;11630;42.660;23.292;2023-10-09T13:03:28;70641.42;;;27.89;19.29
22930;BME280;11630;42.660;23.292;2023-10-09T13:05:59;70443.28;;;26.18;20.28
22930;BME280;11630;42.660;23.292;2023-10-09T13:08:29;70471.20;;;26.37;19.97
22930;BME280;11630;42.660;23.292;2023-10-09T13:11:05;70508.45;;;26.69;19.64
22930;BME280;11630;42.660;23.292;2023-10-09T13:13:41;70428.49;;;25.97;19.44
22930;BME280;11630;42.660;23.292;2023-10-09T13:16:15;70445.84;;;26.14;19.44
22930;BME280;11630;42.660;23.292;2023-10-09T13:18:56;70467.34;;;26.34;19.62
22930;BME280;11630;42.660;23.292;2023-10-09T13:21:28;70446.88;;;26.20;19.62
22930;BME280;11630;42.660;23.292;2023-10-09T13:23:59;70374.48;;;25.49;19.70
22930;BME280;11630;42.660;23.292;2023-10-09T13:26:31;70267.88;;;24.54;20.31
22930;BME280;11630;42.660;23.292;2023-10-09T13:29:02;70352.74;;;25.28;19.86
22930;BME280;11630;42.660;23.292;2023-10-09T13:31:33;70361.39;;;25.48;19.61
22930;BME280;11630;42.660;23.292;2023-10-09T13:34:04;70395.25;;;25.82;22.10
22930;BME280;11630;42.660;23.292;2023-10-09T13:36:36;70419.45;;;25.85;22.62
22930;BME280;11630;42.660;23.292;2023-10-09T13:39:08;70435.66;;;26.04;21.37
22930;BME280;11630;42.660;23.292;2023-10-09T13:41:56;70421.02;;;25.94;19.70
22930;BME280;11630;42.660;23.292;2023-10-09T13:44:30;70422.56;;;26.03;19.57
22930;BME280;11630;42.660;23.292;2023-10-09T13:47:06;70403.35;;;25.81;19.71